createdAt,value
2023-04-16T00:01:23.409Z,100.00
2023-04-16T00:03:50.042Z,100.00
2023-04-16T00:06:16.738Z,100.00
2023-04-16T00:08:43.637Z,100.00
2023-04-16T00:11:10.485Z,100.00
2023-04-16T00:13:37.261Z,100.00
2023-04-16T00:16:03.791Z,100.00
2023-04-16T00:18:30.844Z,100.00
2023-04-16T00:20:57.286Z,100.00
2023-04-16T00:23:25.359Z,100.00
2023-04-16T00:25:52.226Z,100.00
2023-04-16T00:28:18.654Z,100.00
2023-04-16T00:30:45.201Z,100.00
2023-04-16T00:33:11.659Z,100.00
2023-04-16T00:35:38.213Z,100.00
2023-04-16T00:38:04.721Z,100.00
2023-04-16T00:40:31.391Z,100.00
2023-04-16T00:42:57.911Z,100.00
2023-04-16T00:45:24.376Z,100.00
2023-04-16T00:47:50.905Z,100.00
2023-04-16T00:50:17.697Z,100.00
2023-04-16T00:52:47.046Z,100.00
2023-04-16T00:55:13.819Z,100.00
2023-04-16T00:57:40.300Z,100.00
2023-04-16T01:00:07.429Z,100.00
2023-04-16T01:02:34.266Z,100.00
2023-04-16T01:05:02.055Z,100.00
2023-04-16T01:07:28.749Z,100.00
2023-04-16T01:09:55.361Z,100.00
2023-04-16T01:12:21.936Z,100.00
2023-04-16T01:14:48.734Z,100.00
2023-04-16T01:17:15.335Z,100.00
2023-04-16T01:19:42.511Z,100.00
2023-04-16T01:22:08.997Z,100.00
2023-04-16T01:24:36.398Z,100.00
2023-04-16T01:27:03.002Z,100.00
2023-04-16T01:29:29.495Z,100.00
2023-04-16T01:31:56.199Z,100.00
2023-04-16T01:34:23.170Z,100.00
2023-04-16T01:36:49.675Z,100.00
2023-04-16T01:39:16.548Z,100.00
2023-04-16T01:41:43.719Z,100.00
2023-04-16T01:44:10.500Z,100.00
2023-04-16T01:46:38.176Z,100.00
2023-04-16T01:49:05.860Z,100.00
2023-04-16T01:51:32.425Z,100.00
2023-04-16T01:53:59.201Z,100.00
2023-04-16T01:56:25.871Z,100.00
2023-04-16T01:58:52.933Z,100.00
2023-04-16T02:01:19.553Z,100.00
2023-04-16T02:03:46.541Z,100.00
2023-04-16T02:06:13.073Z,100.00
2023-04-16T02:08:39.620Z,100.00
2023-04-16T02:11:06.113Z,100.00
2023-04-16T02:13:32.615Z,100.00
2023-04-16T02:15:59.338Z,100.00
2023-04-16T02:18:25.873Z,100.00
2023-04-16T02:20:52.309Z,100.00
2023-04-16T02:23:18.741Z,100.00
2023-04-16T02:25:46.643Z,100.00
2023-04-16T02:28:15.456Z,100.00
2023-04-16T02:30:42.533Z,100.00
2023-04-16T02:33:11.410Z,100.00
2023-04-16T02:35:39.418Z,100.00
2023-04-16T02:38:06.479Z,100.00
2023-04-16T02:40:33.196Z,100.00
2023-04-16T02:42:59.625Z,100.00
2023-04-16T02:45:26.053Z,100.00
2023-04-16T02:47:52.528Z,100.00
2023-04-16T02:50:19.182Z,100.00
2023-04-16T02:52:45.867Z,100.00
2023-04-16T02:55:12.390Z,100.00
2023-04-16T02:57:38.876Z,100.00
2023-04-16T03:00:06.058Z,100.00
2023-04-16T03:02:32.716Z,100.00
2023-04-16T03:04:59.413Z,100.00
2023-04-16T03:07:26.198Z,100.00
2023-04-16T03:09:52.787Z,100.00
2023-04-16T03:12:19.244Z,100.00
2023-04-16T03:14:45.714Z,100.00
2023-04-16T03:17:12.212Z,100.00
2023-04-16T03:19:38.700Z,100.00
2023-04-16T03:22:05.392Z,100.00
2023-04-16T03:24:32.293Z,100.00
2023-04-16T03:26:58.932Z,100.00
2023-04-16T03:29:26.724Z,100.00
2023-04-16T03:31:53.464Z,100.00
2023-04-16T03:34:20.059Z,100.00
2023-04-16T03:36:46.511Z,100.00
2023-04-16T03:39:13.025Z,100.00
2023-04-16T03:41:39.440Z,100.00
2023-04-16T03:44:05.947Z,100.00
2023-04-16T03:46:32.375Z,100.00
2023-04-16T03:48:58.868Z,100.00
2023-04-16T03:51:26.228Z,100.00
2023-04-16T03:53:52.763Z,100.00
2023-04-16T03:56:19.313Z,100.00
2023-04-16T03:58:45.812Z,100.00
2023-04-16T04:01:12.268Z,100.00
2023-04-16T04:03:38.878Z,100.00
2023-04-16T04:06:09.045Z,100.00
2023-04-16T04:08:35.613Z,100.00
2023-04-16T04:11:02.043Z,100.00
2023-04-16T04:13:28.616Z,100.00
2023-04-16T04:15:55.191Z,100.00
2023-04-16T04:18:21.733Z,100.00
2023-04-16T04:20:48.190Z,100.00
2023-04-16T04:23:14.695Z,100.00
2023-04-16T04:25:41.111Z,100.00
2023-04-16T04:28:07.568Z,100.00
2023-04-16T04:30:35.703Z,100.00
2023-04-16T04:33:02.300Z,100.00
2023-04-16T04:35:28.859Z,100.00
2023-04-16T04:37:55.721Z,100.00
2023-04-16T04:40:22.371Z,100.00
2023-04-16T04:42:48.938Z,100.00
2023-04-16T04:45:15.667Z,100.00
2023-04-16T04:47:42.200Z,100.00
2023-04-16T04:50:09.177Z,100.00
2023-04-16T04:52:35.935Z,100.00
2023-04-16T04:55:02.445Z,100.00
2023-04-16T04:57:28.939Z,100.00
2023-04-16T04:59:55.445Z,100.00
2023-04-16T05:02:21.978Z,100.00
2023-04-16T05:04:48.571Z,100.00
2023-04-16T05:07:16.245Z,100.00
2023-04-16T05:09:42.706Z,100.00
2023-04-16T05:12:09.198Z,100.00
2023-04-16T05:14:36.315Z,100.00
2023-04-16T05:17:02.948Z,100.00
2023-04-16T05:19:29.691Z,100.00
2023-04-16T05:21:56.273Z,100.00
2023-04-16T05:24:23.101Z,100.00
2023-04-16T05:26:49.553Z,100.00
2023-04-16T05:29:16.007Z,100.00
2023-04-16T05:31:42.562Z,100.00
2023-04-16T05:34:09.003Z,100.00
2023-04-16T05:36:35.463Z,100.00
2023-04-16T05:39:03.166Z,100.00
2023-04-16T05:41:29.701Z,100.00
2023-04-16T05:43:56.226Z,100.00
2023-04-16T05:46:22.821Z,100.00
2023-04-16T05:48:49.319Z,100.00
2023-04-16T05:51:15.935Z,100.00
2023-04-16T05:53:42.685Z,100.00
2023-04-16T05:56:09.290Z,100.00
2023-04-16T05:58:35.774Z,100.00
2023-04-16T06:01:02.330Z,100.00
2023-04-16T06:03:28.943Z,100.00
2023-04-16T06:05:55.558Z,100.00
2023-04-16T06:08:22.166Z,100.00
2023-04-16T06:10:49.117Z,100.00
2023-04-16T06:13:15.704Z,100.00
2023-04-16T06:15:42.341Z,100.00
2023-04-16T06:18:09.097Z,100.00
2023-04-16T06:20:36.422Z,100.00
2023-04-16T06:23:02.885Z,100.00
2023-04-16T06:25:29.415Z,100.00
2023-04-16T06:27:55.907Z,100.00
2023-04-16T06:30:22.337Z,100.00
2023-04-16T06:32:49.475Z,100.00
2023-04-16T06:35:16.158Z,100.00
2023-04-16T06:37:42.602Z,100.00
2023-04-16T06:40:09.521Z,100.00
2023-04-16T06:42:36.163Z,100.00
2023-04-16T06:45:02.728Z,100.00
2023-04-16T06:47:29.192Z,100.00
2023-04-16T06:49:55.642Z,100.00
2023-04-16T06:52:22.175Z,100.00
2023-04-16T06:54:48.669Z,100.00
2023-04-16T06:57:16.108Z,100.00
2023-04-16T06:59:42.825Z,100.00
2023-04-16T07:02:10.835Z,100.00
2023-04-16T07:04:37.478Z,100.00
2023-04-16T07:07:03.992Z,100.00
2023-04-16T07:09:30.523Z,100.00
2023-04-16T07:11:57.036Z,100.00
2023-04-16T07:14:23.508Z,100.00
2023-04-16T07:16:50.296Z,100.00
2023-04-16T07:19:16.803Z,100.00
2023-04-16T07:21:43.796Z,100.00
2023-04-16T07:24:11.685Z,100.00
2023-04-16T07:26:38.171Z,100.00
2023-04-16T07:29:04.762Z,100.00
2023-04-16T07:31:31.492Z,100.00
2023-04-16T07:33:58.655Z,100.00
2023-04-16T07:36:25.653Z,100.00
2023-04-16T07:38:52.058Z,100.00
2023-04-16T07:41:18.557Z,100.00
2023-04-16T07:43:44.961Z,100.00
2023-04-16T07:46:11.487Z,100.00
2023-04-16T07:48:37.924Z,100.00
2023-04-16T07:51:04.477Z,100.00
2023-04-16T07:53:30.963Z,100.00
2023-04-16T07:55:57.358Z,100.00
2023-04-16T07:58:23.752Z,100.00
2023-04-16T08:00:51.031Z,100.00
2023-04-16T08:03:18.485Z,100.00
2023-04-16T08:05:45.129Z,100.00
2023-04-16T08:08:11.664Z,100.00
2023-04-16T08:10:39.131Z,100.00
2023-04-16T08:13:05.916Z,100.00
2023-04-16T08:15:32.500Z,100.00
2023-04-16T08:17:59.682Z,100.00
2023-04-16T08:20:26.313Z,100.00
2023-04-16T08:22:54.333Z,100.00
2023-04-16T08:25:21.182Z,100.00
2023-04-16T08:27:47.775Z,100.00
2023-04-16T08:30:15.201Z,100.00
2023-04-16T08:32:41.725Z,100.00
2023-04-16T08:35:08.753Z,100.00
2023-04-16T08:37:35.399Z,100.00
2023-04-16T08:40:02.481Z,100.00
2023-04-16T08:42:34.382Z,100.00
2023-04-16T08:45:21.275Z,100.00
2023-04-16T08:47:49.999Z,100.00
2023-04-16T08:50:18.335Z,100.00
2023-04-16T08:52:58.786Z,100.00
2023-04-16T08:55:36.403Z,100.00
2023-04-16T08:58:08.252Z,100.00
2023-04-16T09:00:37.546Z,100.00
2023-04-16T09:03:04.594Z,100.00
2023-04-16T09:05:33.184Z,100.00
2023-04-16T09:07:59.739Z,100.00
2023-04-16T09:10:27.028Z,100.00
2023-04-16T09:12:57.260Z,100.00
2023-04-16T09:15:25.571Z,100.00
2023-04-16T09:17:52.888Z,100.00
2023-04-16T09:20:20.730Z,100.00
2023-04-16T09:22:47.230Z,100.00
2023-04-16T09:25:14.818Z,100.00
2023-04-16T09:27:41.367Z,100.00
2023-04-16T09:30:21.940Z,100.00
2023-04-16T09:32:48.614Z,100.00
2023-04-16T09:35:15.840Z,100.00
2023-04-16T09:37:42.432Z,100.00
2023-04-16T09:40:09.639Z,100.00
2023-04-16T09:42:39.662Z,100.00
2023-04-16T09:45:06.791Z,100.00
2023-04-16T09:47:44.140Z,100.00
2023-04-16T09:50:17.773Z,100.00
2023-04-16T09:52:48.568Z,100.00
2023-04-16T09:55:15.418Z,100.00
2023-04-16T09:57:42.000Z,100.00
2023-04-16T10:00:10.142Z,100.00
2023-04-16T10:02:41.742Z,100.00
2023-04-16T10:05:09.051Z,100.00
2023-04-16T10:07:36.908Z,100.00
2023-04-16T10:10:04.885Z,100.00
2023-04-16T10:12:32.790Z,100.00
2023-04-16T10:14:59.339Z,100.00
2023-04-16T10:17:27.270Z,100.00
2023-04-16T10:19:54.627Z,100.00
2023-04-16T10:22:21.351Z,100.00
2023-04-16T10:24:48.779Z,100.00
2023-04-16T10:27:16.615Z,100.00
2023-04-16T10:29:44.099Z,100.00
2023-04-16T10:32:11.002Z,100.00
2023-04-16T10:34:37.607Z,100.00
2023-04-16T10:37:04.077Z,100.00
2023-04-16T10:39:30.745Z,100.00
2023-04-16T10:42:13.465Z,100.00
2023-04-16T10:44:44.353Z,100.00
2023-04-16T10:47:13.272Z,100.00
2023-04-16T10:49:41.049Z,100.00
2023-04-16T10:52:11.428Z,100.00
2023-04-16T10:54:39.169Z,100.00
2023-04-16T10:57:12.249Z,100.00
2023-04-16T10:59:39.745Z,100.00
2023-04-16T11:02:15.618Z,100.00
2023-04-16T11:04:44.899Z,100.00
2023-04-16T11:07:11.680Z,100.00
2023-04-16T11:09:50.497Z,99.46
2023-04-16T11:12:22.552Z,99.82
2023-04-16T11:14:53.118Z,99.39
2023-04-16T11:17:21.532Z,99.17
2023-04-16T11:19:48.343Z,99.16
2023-04-16T11:22:17.337Z,98.88
2023-04-16T11:24:46.005Z,98.74
2023-04-16T11:27:15.967Z,98.72
2023-04-16T11:29:43.540Z,98.55
2023-04-16T11:32:21.095Z,98.37
2023-04-16T11:34:47.645Z,98.21
2023-04-16T11:37:14.208Z,98.91
2023-04-16T11:39:51.356Z,99.02
2023-04-16T11:42:23.726Z,98.61
2023-04-16T11:44:55.110Z,98.79
2023-04-16T11:47:23.075Z,98.41
2023-04-16T11:49:50.025Z,98.03
2023-04-16T11:52:30.035Z,98.40
2023-04-16T11:54:57.676Z,97.30
2023-04-16T11:57:31.741Z,97.66
2023-04-16T12:00:02.407Z,97.77
2023-04-16T12:02:36.509Z,98.42
2023-04-16T12:05:04.498Z,97.53
2023-04-16T12:07:31.103Z,97.40
2023-04-16T12:10:08.006Z,97.63
2023-04-16T12:12:35.378Z,97.09
2023-04-16T12:15:05.063Z,96.92
2023-04-16T12:17:33.559Z,96.88
2023-04-16T12:20:03.748Z,96.98
2023-04-16T12:22:36.742Z,96.48
2023-04-16T12:25:06.079Z,96.79
2023-04-16T12:27:54.082Z,95.87
2023-04-16T12:30:23.317Z,95.83
2023-04-16T12:32:52.487Z,96.30
2023-04-16T12:35:34.985Z,96.71
2023-04-16T12:38:01.586Z,96.54
2023-04-16T12:40:28.242Z,96.57
2023-04-16T12:42:55.109Z,96.02
2023-04-16T12:45:22.036Z,96.26
2023-04-16T12:47:48.645Z,96.98
2023-04-16T12:50:15.265Z,96.68
2023-04-16T12:52:41.817Z,96.83
2023-04-16T12:55:08.686Z,96.23
2023-04-16T12:57:35.389Z,95.44
2023-04-16T13:00:01.943Z,95.05
2023-04-16T13:02:29.576Z,94.85
2023-04-16T13:04:56.257Z,95.26
2023-04-16T13:07:22.804Z,95.26
2023-04-16T13:09:49.231Z,94.85
2023-04-16T13:12:15.778Z,94.02
2023-04-16T13:14:44.623Z,94.34
2023-04-16T13:17:11.544Z,94.57
2023-04-16T13:19:38.005Z,95.32
2023-04-16T13:22:04.472Z,94.99
2023-04-16T13:24:30.972Z,95.00
2023-04-16T13:26:57.533Z,95.04
2023-04-16T13:29:24.067Z,94.80
2023-04-16T13:31:50.700Z,94.82
2023-04-16T13:34:17.202Z,94.91
2023-04-16T13:36:43.696Z,93.99
2023-04-16T13:39:12.847Z,95.13
2023-04-16T13:41:40.349Z,94.35
2023-04-16T13:44:07.269Z,93.96
2023-04-16T13:46:34.192Z,93.99
2023-04-16T13:49:01.262Z,95.09
2023-04-16T13:51:27.851Z,94.29
2023-04-16T13:53:55.934Z,94.58
2023-04-16T13:56:22.544Z,94.10
2023-04-16T13:58:49.340Z,93.65
2023-04-16T14:01:17.315Z,94.04
2023-04-16T14:03:44.323Z,93.50
2023-04-16T14:06:11.057Z,93.59
2023-04-16T14:08:38.222Z,92.68
2023-04-16T14:11:06.416Z,92.21
2023-04-16T14:13:33.000Z,92.21
2023-04-16T14:15:59.600Z,91.26
2023-04-16T14:18:26.132Z,90.84
2023-04-16T14:20:52.588Z,90.89
2023-04-16T14:23:19.071Z,89.51
2023-04-16T14:25:45.568Z,89.55
2023-04-16T14:28:13.650Z,89.58
2023-04-16T14:30:41.970Z,89.55
2023-04-16T14:33:08.521Z,87.96
2023-04-16T14:35:36.026Z,88.25
2023-04-16T14:38:02.732Z,88.13
2023-04-16T14:40:29.302Z,88.56
2023-04-16T14:42:55.795Z,88.76
2023-04-16T14:45:22.708Z,89.84
2023-04-16T14:47:50.593Z,90.41
2023-04-16T14:50:17.074Z,90.74
2023-04-16T14:52:43.508Z,90.71
2023-04-16T14:55:10.019Z,89.86
2023-04-16T14:57:36.577Z,89.60
2023-04-16T15:00:07.513Z,89.54
2023-04-16T15:02:35.210Z,89.57
2023-04-16T15:05:01.996Z,89.61
2023-04-16T15:07:28.545Z,89.86
2023-04-16T15:09:55.481Z,89.69
2023-04-16T15:12:21.951Z,88.92
2023-04-16T15:14:48.372Z,88.52
2023-04-16T15:17:14.768Z,87.12
2023-04-16T15:19:41.306Z,86.90
2023-04-16T15:22:07.787Z,86.77
2023-04-16T15:24:34.190Z,85.60
2023-04-16T15:27:02.309Z,86.17
2023-04-16T15:29:28.953Z,86.18
2023-04-16T15:31:55.535Z,86.83
2023-04-16T15:34:22.078Z,86.37
2023-04-16T15:36:48.446Z,87.60
2023-04-16T15:39:14.919Z,87.59
2023-04-16T15:41:53.643Z,87.69
2023-04-16T15:44:26.802Z,87.95
2023-04-16T15:46:53.209Z,88.16
2023-04-16T15:49:19.661Z,88.51
2023-04-16T15:51:46.234Z,88.43
2023-04-16T15:54:12.784Z,89.11
2023-04-16T15:56:39.675Z,89.19
2023-04-16T15:59:06.433Z,89.47
2023-04-16T16:01:32.930Z,89.78
2023-04-16T16:03:59.745Z,89.72
2023-04-16T16:06:27.149Z,89.64
2023-04-16T16:08:54.561Z,89.80
2023-04-16T16:11:21.838Z,89.90
2023-04-16T16:13:48.389Z,89.86
2023-04-16T16:16:15.412Z,89.54
2023-04-16T16:18:42.306Z,89.86
2023-04-16T16:21:08.855Z,90.99
2023-04-16T16:23:35.354Z,90.85
2023-04-16T16:26:01.812Z,91.44
2023-04-16T16:28:28.272Z,91.75
2023-04-16T16:30:55.489Z,92.74
2023-04-16T16:33:22.365Z,92.61
2023-04-16T16:35:48.880Z,93.96
2023-04-16T16:38:15.545Z,93.18
2023-04-16T16:40:42.057Z,93.10
2023-04-16T16:43:08.536Z,93.37
2023-04-16T16:45:35.049Z,93.87
2023-04-16T16:48:03.486Z,93.20
2023-04-16T16:50:33.125Z,93.60
2023-04-16T16:53:00.198Z,93.08
2023-04-16T16:55:26.930Z,93.35
2023-04-16T16:57:53.454Z,93.99
2023-04-16T17:00:21.509Z,94.52
2023-04-16T17:02:51.119Z,95.25
2023-04-16T17:05:17.948Z,94.89
2023-04-16T17:07:44.774Z,94.78
2023-04-16T17:10:13.386Z,95.37
2023-04-16T17:12:39.748Z,95.04
2023-04-16T17:15:06.731Z,95.44
2023-04-16T17:17:33.361Z,95.81
2023-04-16T17:20:01.048Z,96.27
2023-04-16T17:22:27.618Z,96.66
2023-04-16T17:24:54.387Z,96.92
2023-04-16T17:27:20.957Z,97.08
2023-04-16T17:29:47.376Z,97.87
2023-04-16T17:32:13.927Z,98.11
2023-04-16T17:34:40.815Z,97.90
2023-04-16T17:37:07.274Z,98.22
2023-04-16T17:39:33.709Z,98.17
2023-04-16T17:42:02.963Z,98.31
2023-04-16T17:44:29.393Z,98.37
2023-04-16T17:46:56.867Z,98.72
2023-04-16T17:49:23.341Z,98.36
2023-04-16T17:51:49.864Z,98.86
2023-04-16T17:54:16.264Z,99.09
2023-04-16T17:56:42.725Z,98.90
2023-04-16T17:59:09.142Z,98.90
2023-04-16T18:01:35.722Z,99.11
2023-04-16T18:04:02.455Z,99.39
2023-04-16T18:06:29.130Z,99.52
2023-04-16T18:08:55.560Z,99.95
2023-04-16T18:11:22.222Z,99.98
2023-04-16T18:13:48.720Z,100.00
2023-04-16T18:16:16.755Z,100.00
2023-04-16T18:18:44.249Z,100.00
2023-04-16T18:21:10.901Z,100.00
2023-04-16T18:23:37.545Z,100.00
2023-04-16T18:26:04.235Z,100.00
2023-04-16T18:28:30.643Z,100.00
2023-04-16T18:30:59.007Z,100.00
2023-04-16T18:33:52.613Z,100.00
2023-04-16T18:36:14.591Z,100.00
2023-04-16T18:38:52.936Z,100.00
2023-04-16T18:41:26.282Z,100.00
2023-04-16T18:43:52.759Z,100.00
2023-04-16T18:46:19.217Z,100.00
2023-04-16T18:48:45.818Z,100.00
2023-04-16T18:51:14.187Z,100.00
2023-04-16T18:53:44.143Z,100.00
2023-04-16T18:56:11.114Z,100.00
2023-04-16T18:58:37.913Z,100.00
2023-04-16T19:01:04.889Z,100.00
2023-04-16T19:03:32.193Z,100.00
2023-04-16T19:05:58.813Z,100.00
2023-04-16T19:08:25.307Z,100.00
2023-04-16T19:10:51.863Z,100.00
2023-04-16T19:13:18.552Z,100.00
2023-04-16T19:15:45.352Z,100.00
2023-04-16T19:18:11.818Z,100.00
2023-04-16T19:20:38.482Z,100.00
2023-04-16T19:23:05.765Z,100.00
2023-04-16T19:25:32.512Z,100.00
2023-04-16T19:27:58.942Z,100.00
2023-04-16T19:30:26.458Z,100.00
2023-04-16T19:32:55.180Z,100.00
2023-04-16T19:35:22.294Z,100.00
2023-04-16T19:37:49.039Z,100.00
2023-04-16T19:40:15.502Z,100.00
2023-04-16T19:42:42.013Z,100.00
2023-04-16T19:45:08.716Z,100.00
2023-04-16T19:47:35.562Z,100.00
2023-04-16T19:50:02.207Z,100.00
2023-04-16T19:52:28.776Z,100.00
2023-04-16T19:54:55.196Z,100.00
2023-04-16T19:57:21.620Z,100.00
2023-04-16T19:59:48.027Z,100.00
2023-04-16T20:02:14.475Z,100.00
2023-04-16T20:04:41.016Z,100.00
2023-04-16T20:07:07.465Z,100.00
2023-04-16T20:09:33.898Z,100.00
2023-04-16T20:12:00.774Z,100.00
2023-04-16T20:14:27.347Z,100.00
2023-04-16T20:16:53.885Z,100.00
2023-04-16T20:19:20.446Z,100.00
2023-04-16T20:21:46.926Z,100.00
2023-04-16T20:24:15.347Z,100.00
2023-04-16T20:26:41.964Z,100.00
2023-04-16T20:29:10.280Z,100.00
2023-04-16T20:31:36.968Z,100.00
2023-04-16T20:34:03.869Z,100.00
2023-04-16T20:36:30.433Z,100.00
2023-04-16T20:38:56.945Z,100.00
2023-04-16T20:41:25.183Z,100.00
2023-04-16T20:43:52.742Z,100.00
2023-04-16T20:46:23.870Z,100.00
2023-04-16T20:48:51.781Z,100.00
2023-04-16T20:51:18.224Z,100.00
2023-04-16T20:53:44.819Z,100.00
2023-04-16T20:56:14.693Z,100.00
2023-04-16T20:58:42.660Z,100.00
2023-04-16T21:01:09.312Z,100.00
2023-04-16T21:03:36.562Z,100.00
2023-04-16T21:06:03.838Z,100.00
2023-04-16T21:08:30.326Z,100.00
2023-04-16T21:10:56.815Z,100.00
2023-04-16T21:13:23.398Z,100.00
2023-04-16T21:15:49.970Z,100.00
2023-04-16T21:18:18.529Z,100.00
2023-04-16T21:20:45.160Z,100.00
2023-04-16T21:23:11.702Z,100.00
2023-04-16T21:25:38.122Z,100.00
2023-04-16T21:28:05.006Z,100.00
2023-04-16T21:30:31.569Z,100.00
2023-04-16T21:32:58.139Z,100.00
2023-04-16T21:35:24.621Z,100.00
2023-04-16T21:37:51.214Z,100.00
2023-04-16T21:40:17.810Z,100.00
2023-04-16T21:42:44.608Z,100.00
2023-04-16T21:45:11.376Z,100.00
2023-04-16T21:47:38.352Z,100.00
2023-04-16T21:50:05.808Z,100.00
2023-04-16T21:52:32.935Z,100.00
2023-04-16T21:55:00.296Z,100.00
2023-04-16T21:57:26.953Z,100.00
2023-04-16T21:59:53.520Z,100.00
2023-04-16T22:02:20.129Z,100.00
2023-04-16T22:04:46.839Z,100.00
2023-04-16T22:07:13.356Z,100.00
2023-04-16T22:09:40.720Z,100.00
2023-04-16T22:12:10.136Z,100.00
2023-04-16T22:14:39.221Z,100.00
2023-04-16T22:17:09.395Z,100.00
2023-04-16T22:19:37.203Z,100.00
2023-04-16T22:22:03.673Z,100.00
2023-04-16T22:24:30.210Z,100.00
2023-04-16T22:26:57.041Z,100.00
2023-04-16T22:29:23.463Z,100.00
2023-04-16T22:31:50.016Z,100.00
2023-04-16T22:34:16.666Z,100.00
2023-04-16T22:36:43.090Z,100.00
2023-04-16T22:39:10.033Z,100.00
2023-04-16T22:41:37.483Z,100.00
2023-04-16T22:44:04.059Z,100.00
2023-04-16T22:46:31.064Z,100.00
2023-04-16T22:48:57.867Z,100.00
2023-04-16T22:51:24.557Z,100.00
2023-04-16T22:53:51.887Z,100.00
2023-04-16T22:56:21.772Z,100.00
2023-04-16T22:58:51.096Z,100.00
2023-04-16T23:01:17.718Z,100.00
2023-04-16T23:03:44.274Z,100.00
2023-04-16T23:06:10.825Z,100.00
2023-04-16T23:08:37.395Z,100.00
2023-04-16T23:11:03.936Z,100.00
2023-04-16T23:13:30.437Z,100.00
2023-04-16T23:15:57.298Z,100.00
2023-04-16T23:18:23.894Z,100.00
2023-04-16T23:20:51.943Z,100.00
2023-04-16T23:23:18.716Z,100.00
2023-04-16T23:25:45.280Z,100.00
2023-04-16T23:28:11.754Z,100.00
2023-04-16T23:30:38.243Z,100.00
2023-04-16T23:33:04.863Z,100.00
2023-04-16T23:35:31.356Z,100.00
2023-04-16T23:37:57.818Z,100.00
2023-04-16T23:40:24.413Z,100.00
2023-04-16T23:42:50.887Z,100.00
2023-04-16T23:45:17.437Z,100.00
2023-04-16T23:47:44.797Z,100.00
2023-04-16T23:50:11.514Z,100.00
2023-04-16T23:52:37.996Z,100.00
2023-04-16T23:55:04.928Z,100.00
2023-04-16T23:57:31.400Z,100.00
2023-04-16T23:59:57.861Z,100.00
